Time;durP1;ratioP1;P1;durP2;ratioP2;P2;SDS_P1;SDS_P2;PMS_P1;PMS_P2;Temp;Humidity;BMP_temperature;BMP_pressure;BME280_temperature;BME280_humidity;BME280_pressure;Samples;Min_cycle;Max_cycle;Signal;HPM_P1;HPM_P2
2022/09/01 00:02:09;;;;;;;3.33;3.17;;;14.30;99.90;;;;;;5014316;28;20917;-69
2022/09/01 00:04:37;;;;;;;0.57;0.50;;;14.30;99.90;;;;;;5014080;28;20414;-72
2022/09/01 00:07:04;;;;;;;2.07;1.47;;;14.30;99.90;;;;;;5013590;28;20918;-72
2022/09/01 00:09:30;;;;;;;2.93;2.73;;;14.30;99.90;;;;;;5014104;28;20892;-70
2022/09/01 00:11:56;;;;;;;0.60;0.60;;;14.70;99.90;;;;;;5013917;28;20454;-71
2022/09/01 00:14:28;;;;;;;2.87;2.20;;;14.30;99.90;;;;;;5013904;28;20403;-72
2022/09/01 00:16:54;;;;;;;1.20;1.20;;;;;;;;;;5014068;28;20195;-71
2022/09/01 00:19:22;;;;;;;1.50;1.40;;;14.40;99.90;;;;;;5014082;28;20490;-71
2022/09/01 00:21:48;;;;;;;0.93;0.70;;;14.20;99.90;;;;;;5013775;28;20410;-71
2022/09/01 00:24:16;;;;;;;0.70;0.70;;;14.10;99.90;;;;;;5013928;28;20401;-71
2022/09/01 00:26:42;;;;;;;2.30;2.20;;;14.00;99.90;;;;;;5013755;28;20249;-72
2022/09/01 00:29:08;;;;;;;1.00;1.00;;;;;;;;;;5013729;28;20407;-70
2022/09/01 00:31:34;;;;;;;0.70;0.70;;;14.30;99.90;;;;;;5012268;28;20538;-70
2022/09/01 00:34:00;;;;;;;3.00;1.57;;;14.30;99.90;;;;;;5013765;28;20445;-70
2022/09/01 00:36:26;;;;;;;1.90;1.27;;;14.30;99.90;;;;;;5013730;28;20805;-69
2022/09/01 00:38:53;;;;;;;1.40;1.30;;;14.40;99.90;;;;;;5013676;28;20907;-72
2022/09/01 00:41:23;;;;;;;0.67;0.67;;;14.30;99.90;;;;;;5013485;28;20407;-71
2022/09/01 00:43:52;;;;;;;1.17;1.10;;;14.20;99.90;;;;;;5013576;28;20430;-71
2022/09/01 00:46:23;;;;;;;1.40;1.30;;;14.40;99.90;;;;;;5014025;28;20931;-72
2022/09/01 00:49:00;;;;;;;0.93;0.93;;;14.40;99.90;;;;;;5013664;28;20772;-69
2022/09/01 00:51:28;;;;;;;1.13;1.13;;;14.30;99.90;;;;;;5013564;28;20877;-71
2022/09/01 00:53:55;;;;;;;2.10;2.00;;;14.30;99.90;;;;;;5013662;28;20394;-72
2022/09/01 00:56:22;;;;;;;2.00;1.40;;;14.30;99.90;;;;;;5013448;28;20791;-72
2022/09/01 00:58:50;;;;;;;1.30;1.20;;;14.30;99.90;;;;;;5013495;28;20394;-69
2022/09/01 01:01:16;;;;;;;0.97;0.97;;;15.10;99.90;;;;;;5013356;28;20406;-70
2022/09/01 01:03:43;;;;;;;1.13;0.93;;;14.20;99.90;;;;;;5013524;28;20949;-70
2022/09/01 01:06:09;;;;;;;1.70;1.60;;;14.30;99.90;;;;;;5013554;28;20786;-71
2022/09/01 01:08:38;;;;;;;1.13;1.13;;;14.20;99.90;;;;;;5012063;28;20426;-70
2022/09/01 01:11:10;;;;;;;1.17;1.17;;;14.20;99.90;;;;;;5013120;28;21024;-69
2022/09/01 01:13:55;;;;;;;0.90;0.90;;;13.90;99.90;;;;;;5013414;28;20403;-69
2022/09/01 01:16:23;;;;;;;5.20;4.20;;;14.20;99.90;;;;;;5013191;28;20446;-72
2022/09/01 01:18:49;;;;;;;4.63;1.43;;;14.20;99.90;;;;;;5013339;28;20403;-72
2022/09/01 01:24:37;;;;;;;2.00;1.80;;;14.10;99.90;;;;;;5017318;28;20402;-70
2022/09/01 01:27:03;;;;;;;0.83;0.83;;;14.10;99.90;;;;;;4999926;28;20449;-72
2022/09/01 01:29:36;;;;;;;1.90;1.80;;;14.10;99.90;;;;;;5016846;28;20911;-72
2022/09/01 01:32:11;;;;;;;2.07;1.97;;;14.10;99.90;;;;;;5017037;28;20451;-70
2022/09/01 01:34:38;;;;;;;3.70;2.20;;;14.10;99.90;;;;;;5017110;28;20410;-72
2022/09/01 01:37:04;;;;;;;1.10;1.10;;;14.00;99.90;;;;;;5016699;28;20912;-70
2022/09/01 01:39:31;;;;;;;2.27;2.00;;;14.00;99.90;;;;;;5016780;28;20406;-71
2022/09/01 01:41:57;;;;;;;0.87;0.80;;;13.90;99.90;;;;;;5016689;28;20702;-72
2022/09/01 01:44:27;;;;;;;2.10;1.90;;;14.10;99.90;;;;;;5016631;28;20439;-71
2022/09/01 01:46:54;;;;;;;1.00;0.97;;;14.10;99.90;;;;;;5016492;28;20437;-72
2022/09/01 01:49:24;;;;;;;2.90;2.73;;;14.00;99.90;;;;;;5016609;28;20413;-69
2022/09/01 01:51:54;;;;;;;2.70;2.60;;;14.00;99.90;;;;;;5016487;28;20802;-71
2022/09/01 01:54:21;;;;;;;4.30;2.93;;;13.90;99.90;;;;;;5016379;28;20407;-69
2022/09/01 01:56:47;;;;;;;1.53;1.53;;;13.90;99.90;;;;;;5016935;28;20943;-71
2022/09/01 01:59:13;;;;;;;1.80;1.80;;;13.90;99.90;;;;;;5016394;28;20458;-69
2022/09/01 02:01:41;;;;;;;0.77;0.77;;;13.90;99.90;;;;;;5016230;28;20407;-70
2022/09/01 02:04:09;;;;;;;2.50;2.27;;;13.80;99.90;;;;;;5016348;28;20473;-70
2022/09/01 02:06:39;;;;;;;3.00;2.90;;;13.90;99.90;;;;;;5016279;28;20464;-72
2022/09/01 02:09:05;;;;;;;1.40;1.33;;;14.00;99.90;;;;;;5016352;28;20499;-71
2022/09/01 02:11:32;;;;;;;1.53;1.53;;;13.90;99.90;;;;;;5015937;28;20451;-70
2022/09/01 02:13:59;;;;;;;1.03;0.87;;;13.90;99.90;;;;;;5016257;28;20407;-69
2022/09/01 02:16:27;;;;;;;4.40;1.30;;;13.90;99.90;;;;;;5015855;28;20462;-71
2022/09/01 02:18:53;;;;;;;1.60;1.50;;;14.00;99.90;;;;;;5015955;28;20406;-71
2022/09/01 02:21:22;;;;;;;1.33;1.33;;;13.90;99.90;;;;;;5015706;28;20406;-72
2022/09/01 02:24:01;;;;;;;2.00;0.83;;;13.90;99.90;;;;;;5015837;28;20910;-71
2022/09/01 02:26:32;;;;;;;0.70;0.70;;;13.80;99.90;;;;;;5015951;28;20436;-70
2022/09/01 02:29:05;;;;;;;3.00;2.80;;;13.70;99.90;;;;;;5016000;28;20409;-71
2022/09/01 02:31:40;;;;;;;1.70;1.60;;;13.70;99.90;;;;;;5015438;28;20811;-69
2022/09/01 02:34:09;;;;;;;1.87;1.00;;;13.70;99.90;;;;;;5015877;28;20793;-72
2022/09/01 02:36:41;;;;;;;1.47;1.37;;;13.80;99.90;;;;;;5015579;28;20483;-70
2022/09/01 02:39:07;;;;;;;2.00;1.60;;;13.80;99.90;;;;;;5015814;28;20402;-69
2022/09/01 02:41:33;;;;;;;2.60;1.77;;;;;;;;;;5015490;28;20493;-69
2022/09/01 02:44:01;;;;;;;2.60;1.40;;;13.80;99.90;;;;;;5015712;28;20179;-70
2022/09/01 02:46:28;;;;;;;3.37;1.73;;;13.80;99.90;;;;;;5015438;28;20440;-70
2022/09/01 02:48:55;;;;;;;0.80;0.80;;;;;;;;;;5015387;28;20493;-70
2022/09/01 02:51:24;;;;;;;1.07;1.03;;;13.60;99.90;;;;;;5015167;28;20537;-71
2022/09/01 02:53:51;;;;;;;1.63;1.53;;;13.70;99.90;;;;;;5014150;28;20460;-70
2022/09/01 02:56:21;;;;;;;1.13;1.10;;;13.80;99.90;;;;;;5015334;28;20488;-70
2022/09/01 02:58:48;;;;;;;3.37;3.23;;;13.70;99.90;;;;;;5015208;28;20389;-70
2022/09/01 03:01:40;;;;;;;2.30;2.10;;;13.60;99.90;;;;;;5014849;28;20903;-71
2022/09/01 03:04:10;;;;;;;0.87;0.87;;;13.50;99.90;;;;;;5011807;28;20429;-71
2022/09/01 03:06:37;;;;;;;1.23;1.20;;;13.60;99.90;;;;;;5015127;28;20438;-69
2022/09/01 03:09:07;;;;;;;2.53;0.80;;;13.40;99.90;;;;;;5014983;28;20903;-72
2022/09/01 03:11:35;;;;;;;1.23;1.23;;;13.50;99.90;;;;;;5014741;28;20477;-72
2022/09/01 03:14:01;;;;;;;1.00;1.00;;;13.40;99.90;;;;;;5013649;28;20410;-72
2022/09/01 03:16:29;;;;;;;2.17;2.07;;;13.40;99.90;;;;;;5014720;28;20464;-71
2022/09/01 03:18:55;;;;;;;2.70;1.87;;;13.40;99.90;;;;;;5015050;28;20431;-69
2022/09/01 03:21:22;;;;;;;3.37;0.97;;;13.50;99.90;;;;;;5014842;28;20771;-70
2022/09/01 03:23:51;;;;;;;1.23;1.13;;;13.60;99.90;;;;;;5014916;28;20434;-72
2022/09/01 03:26:19;;;;;;;1.47;1.37;;;13.70;99.90;;;;;;5014613;28;20439;-70
2022/09/01 03:28:46;;;;;;;2.23;2.00;;;13.50;99.90;;;;;;5014892;28;20410;-72
2022/09/01 03:31:12;;;;;;;1.33;1.23;;;13.40;99.90;;;;;;5014598;28;20446;-70
2022/09/01 03:33:38;;;;;;;5.70;1.90;;;13.30;99.90;;;;;;5014708;28;20909;-71
2022/09/01 03:36:05;;;;;;;1.60;1.50;;;13.40;99.90;;;;;;5014723;28;20506;-71
2022/09/01 03:38:33;;;;;;;1.93;0.90;;;13.60;99.90;;;;;;5014494;28;20175;-70
2022/09/01 03:41:01;;;;;;;1.20;1.20;;;13.30;99.90;;;;;;5014539;28;20883;-72
2022/09/01 03:43:29;;;;;;;2.10;2.00;;;13.30;99.90;;;;;;5012594;28;20418;-71
2022/09/01 03:45:58;;;;;;;1.60;1.60;;;13.20;99.90;;;;;;5014353;28;20444;-72
2022/09/01 03:48:26;;;;;;;1.30;1.20;;;13.30;99.90;;;;;;5014329;28;20414;-70
2022/09/01 03:50:52;;;;;;;4.00;2.83;;;13.10;99.90;;;;;;5013975;28;20946;-69
2022/09/01 03:53:21;;;;;;;1.23;1.17;;;13.20;99.90;;;;;;5014213;28;20413;-72
2022/09/01 03:55:48;;;;;;;1.10;1.10;;;13.20;99.90;;;;;;5014152;28;20190;-71
2022/09/01 03:58:20;;;;;;;0.70;0.70;;;13.20;99.90;;;;;;5014208;28;20798;-72
2022/09/01 04:00:59;;;;;;;0.73;0.73;;;13.30;99.90;;;;;;5014076;28;20919;-69
2022/09/01 04:03:28;;;;;;;1.67;1.57;;;13.10;99.90;;;;;;5014324;28;20463;-70
2022/09/01 04:05:54;;;;;;;2.77;2.67;;;13.20;99.90;;;;;;5014168;28;20460;-71
2022/09/01 04:08:28;;;;;;;1.00;1.00;;;13.10;99.90;;;;;;5014248;28;20409;-72
2022/09/01 04:10:54;;;;;;;2.33;2.13;;;13.30;99.90;;;;;;5014026;28;20881;-70
2022/09/01 04:13:29;;;;;;;1.50;1.47;;;13.10;99.90;;;;;;5014122;28;20449;-72
2022/09/01 04:15:55;;;;;;;1.40;1.40;;;12.70;99.90;;;;;;5012476;28;20973;-72
2022/09/01 04:18:22;;;;;;;1.10;1.10;;;13.00;99.90;;;;;;5013877;28;20456;-70
2022/09/01 04:20:55;;;;;;;1.57;1.47;;;12.80;99.90;;;;;;5013874;28;20410;-71
2022/09/01 04:23:32;;;;;;;1.40;1.37;;;12.90;99.90;;;;;;5013924;28;20444;-70
2022/09/01 04:26:07;;;;;;;3.90;1.63;;;13.00;99.90;;;;;;5013832;28;20432;-71
2022/09/01 04:28:37;;;;;;;0.87;0.80;;;12.80;99.90;;;;;;5013791;28;20378;-71
2022/09/01 04:31:08;;;;;;;3.60;1.57;;;12.90;99.90;;;;;;5013461;28;21004;-72
2022/09/01 04:33:36;;;;;;;0.50;0.50;;;13.00;99.90;;;;;;5014004;28;20403;-69
2022/09/01 04:36:05;;;;;;;0.53;0.53;;;12.80;99.90;;;;;;5013725;28;20432;-72
2022/09/01 04:38:32;;;;;;;2.27;2.17;;;12.80;99.90;;;;;;5013810;28;20409;-71
2022/09/01 04:41:03;;;;;;;0.97;0.97;;;12.80;99.90;;;;;;5013510;28;20952;-72
2022/09/01 04:43:28;;;;;;;1.10;1.10;;;12.90;99.90;;;;;;5013849;28;20414;-71
2022/09/01 04:45:55;;;;;;;1.27;1.17;;;12.90;99.90;;;;;;5013564;28;20438;-70
2022/09/01 04:48:21;;;;;;;0.60;0.60;;;12.80;99.90;;;;;;5013639;28;20174;-72
2022/09/01 04:50:48;;;;;;;1.17;1.17;;;12.70;99.90;;;;;;5013482;28;20458;-71
2022/09/01 04:53:15;;;;;;;0.70;0.70;;;12.70;99.90;;;;;;5014544;28;20398;-70
2022/09/01 04:55:43;;;;;;;1.23;1.23;;;12.90;99.90;;;;;;5017738;28;20422;-69
2022/09/01 04:58:12;;;;;;;2.00;1.90;;;12.80;99.90;;;;;;5017360;28;20398;-71
2022/09/01 05:00:39;;;;;;;2.13;2.03;;;12.90;99.90;;;;;;5017082;28;20412;-71
2022/09/01 05:03:05;;;;;;;1.60;1.50;;;13.20;99.90;;;;;;5017373;28;20403;-70
2022/09/01 05:05:44;;;;;;;1.77;1.10;;;12.90;99.90;;;;;;5017592;28;20887;-71
2022/09/01 05:08:13;;;;;;;0.63;0.63;;;12.40;99.90;;;;;;5017188;28;20406;-72
2022/09/01 05:10:45;;;;;;;1.73;1.63;;;13.00;99.90;;;;;;5016934;28;20512;-72
2022/09/01 05:13:16;;;;;;;0.97;0.87;;;12.60;99.90;;;;;;5017259;28;20430;-71
2022/09/01 05:15:46;;;;;;;2.97;2.77;;;12.80;99.90;;;;;;5016933;28;20437;-70
2022/09/01 05:18:26;;;;;;;5.20;2.50;;;13.00;99.90;;;;;;5017181;28;20393;-69
2022/09/01 05:20:54;;;;;;;0.40;0.40;;;13.10;99.90;;;;;;5017199;28;20408;-70
2022/09/01 05:23:21;;;;;;;0.67;0.67;;;12.60;99.90;;;;;;5017105;28;20404;-71
2022/09/01 05:25:50;;;;;;;0.70;0.70;;;13.00;99.90;;;;;;5016930;28;20457;-70
2022/09/01 05:28:17;;;;;;;0.90;0.90;;;12.70;99.90;;;;;;5017017;28;20405;-71
2022/09/01 05:30:46;;;;;;;0.80;0.80;;;12.90;99.90;;;;;;5016694;28;20542;-71
2022/09/01 05:33:15;;;;;;;0.40;0.40;;;13.20;99.90;;;;;;5016857;28;20410;-70
2022/09/01 05:35:50;;;;;;;3.07;1.03;;;12.70;99.90;;;;;;5016922;28;20427;-71
2022/09/01 05:38:17;;;;;;;2.30;0.90;;;13.10;99.90;;;;;;5016912;28;20406;-71
2022/09/01 05:40:43;;;;;;;0.50;0.50;;;13.20;99.90;;;;;;5016553;28;20888;-69
2022/09/01 05:43:12;;;;;;;1.53;1.17;;;13.10;99.90;;;;;;5015600;28;20418;-72
2022/09/01 05:45:43;;;;;;;0.93;0.93;;;12.90;99.90;;;;;;5016716;28;20436;-69
2022/09/01 05:48:11;;;;;;;0.57;0.57;;;13.20;99.90;;;;;;5016803;28;20781;-71
2022/09/01 05:50:41;;;;;;;0.83;0.80;;;13.20;99.90;;;;;;5016675;28;20985;-71
2022/09/01 05:53:09;;;;;;;1.10;1.00;;;13.40;99.90;;;;;;5016443;28;20418;-69
2022/09/01 05:55:36;;;;;;;1.27;1.20;;;13.70;99.90;;;;;;5016459;28;20927;-70
2022/09/01 05:58:03;;;;;;;1.80;1.70;;;;;;;;;;5016343;28;20410;-70
2022/09/01 06:00:33;;;;;;;0.83;0.83;;;14.10;99.90;;;;;;5016186;28;20549;-71
2022/09/01 06:03:01;;;;;;;1.13;1.03;;;14.10;99.90;;;;;;5016501;28;20442;-72
2022/09/01 06:05:27;;;;;;;1.80;1.60;;;;;;;;;;5015612;28;20408;-71
2022/09/01 06:07:54;;;;;;;1.00;1.00;;;14.50;99.90;;;;;;5016353;28;20414;-72
2022/09/01 06:10:19;;;;;;;2.13;2.03;;;14.70;99.90;;;;;;5016310;28;20534;-71
2022/09/01 06:12:46;;;;;;;1.87;1.77;;;15.10;99.90;;;;;;5016044;28;20542;-69
2022/09/01 06:15:14;;;;;;;1.17;0.87;;;;;;;;;;5015919;28;20192;-69
2022/09/01 06:17:40;;;;;;;2.50;2.40;;;15.60;99.90;;;;;;5015973;28;20932;-70
2022/09/01 06:20:09;;;;;;;2.33;2.03;;;15.50;99.90;;;;;;5015985;28;20406;-71
2022/09/01 06:22:35;;;;;;;0.67;0.63;;;15.40;99.90;;;;;;5016068;28;20174;-70
2022/09/01 06:25:01;;;;;;;1.43;1.33;;;15.70;99.90;;;;;;5015820;28;20481;-70
2022/09/01 06:27:32;;;;;;;1.70;1.47;;;15.90;99.90;;;;;;5015248;28;20777;-70
2022/09/01 06:29:58;;;;;;;1.43;1.33;;;16.10;99.90;;;;;;5015837;28;20406;-71
2022/09/01 06:32:24;;;;;;;1.57;0.90;;;16.40;99.90;;;;;;5014577;28;20501;-70
2022/09/01 06:34:50;;;;;;;1.17;1.17;;;17.00;99.90;;;;;;5015814;28;20442;-70
2022/09/01 06:37:21;;;;;;;1.73;1.63;;;17.10;99.70;;;;;;5016213;28;20899;-72
2022/09/01 06:39:47;;;;;;;1.90;1.80;;;17.50;99.90;;;;;;5015626;28;20506;-70
2022/09/01 06:42:14;;;;;;;0.50;0.50;;;17.20;97.70;;;;;;5015566;28;20457;-71
2022/09/01 06:44:40;;;;;;;1.30;1.20;;;17.80;99.90;;;;;;5015563;28;20413;-71
2022/09/01 06:47:07;;;;;;;1.30;0.77;;;17.40;99.90;;;;;;5015402;28;20419;-73
2022/09/01 06:49:35;;;;;;;1.67;1.57;;;17.20;99.90;;;;;;5015217;28;20197;-70
2022/09/01 06:52:03;;;;;;;0.63;0.63;;;17.50;98.30;;;;;;5015371;28;20469;-71
2022/09/01 06:54:33;;;;;;;0.70;0.63;;;17.60;97.70;;;;;;5015960;28;20419;-72
2022/09/01 06:57:02;;;;;;;1.33;0.80;;;17.60;97.50;;;;;;5015663;28;20428;-70
2022/09/01 06:59:30;;;;;;;1.63;1.53;;;17.70;96.90;;;;;;5015305;28;20413;-70
2022/09/01 07:02:02;;;;;;;1.70;1.60;;;17.10;99.90;;;;;;5015125;28;20414;-70
2022/09/01 07:04:29;;;;;;;1.27;1.13;;;17.00;97.70;;;;;;5015319;28;20417;-72
2022/09/01 07:06:56;;;;;;;4.23;1.10;;;17.10;99.90;;;;;;5015045;28;20526;-72
2022/09/01 07:09:22;;;;;;;0.70;0.70;;;;;;;;;;5015055;28;20419;-70
2022/09/01 07:11:47;;;;;;;1.27;1.27;;;18.00;99.90;;;;;;5014788;28;20495;-72
2022/09/01 07:14:16;;;;;;;0.80;0.80;;;17.80;96.60;;;;;;5014943;28;20434;-72
2022/09/01 07:16:43;;;;;;;1.17;1.17;;;18.30;96.40;;;;;;5014188;28;20228;-72
2022/09/01 07:19:13;;;;;;;0.90;0.83;;;18.30;95.50;;;;;;5014854;28;20486;-70
2022/09/01 07:21:40;;;;;;;0.73;0.73;;;18.30;99.90;;;;;;5014539;28;20420;-69
2022/09/01 07:24:06;;;;;;;0.77;0.77;;;18.60;99.90;;;;;;5015006;28;20745;-72
2022/09/01 07:26:34;;;;;;;0.80;0.80;;;18.50;96.10;;;;;;5014692;28;20437;-73
2022/09/01 07:29:02;;;;;;;0.80;0.80;;;18.80;94.80;;;;;;5014905;28;20522;-72
2022/09/01 07:31:46;;;;;;;0.67;0.67;;;19.40;99.90;;;;;;5014567;28;20453;-72
2022/09/01 07:34:13;;;;;;;0.50;0.50;;;19.40;94.80;;;;;;5014886;28;20731;-72
2022/09/01 07:36:40;;;;;;;0.90;0.90;;;19.40;95.00;;;;;;5014678;28;20785;-72
2022/09/01 07:39:06;;;;;;;1.60;1.00;;;19.20;99.90;;;;;;5014592;28;20402;-72
2022/09/01 07:41:33;;;;;;;0.60;0.60;;;19.30;93.30;;;;;;5014383;28;20505;-71
2022/09/01 07:44:01;;;;;;;0.87;0.87;;;19.30;93.60;;;;;;5014679;28;20257;-71
2022/09/01 07:46:30;;;;;;;1.50;1.07;;;18.70;99.90;;;;;;5014374;28;20433;-71
2022/09/01 07:48:56;;;;;;;0.50;0.50;;;19.00;99.90;;;;;;5013108;28;20423;-71
2022/09/01 07:51:25;;;;;;;0.70;0.70;;;18.80;95.00;;;;;;5014314;28;20460;-72
2022/09/01 07:53:51;;;;;;;0.40;0.40;;;19.30;99.90;;;;;;5014459;28;20768;-71
2022/09/01 07:56:20;;;;;;;1.30;1.30;;;19.10;93.90;;;;;;5014362;28;20438;-72
2022/09/01 07:58:47;;;;;;;0.57;0.57;;;18.70;95.30;;;;;;5014209;28;20463;-71
2022/09/01 08:01:21;;;;;;;1.33;0.90;;;18.40;94.80;;;;;;5013949;28;20772;-72
2022/09/01 08:03:50;;;;;;;0.60;0.60;;;18.50;99.90;;;;;;5014186;28;20410;-72
2022/09/01 08:06:19;;;;;;;0.80;0.73;;;18.60;99.90;;;;;;5012837;28;20461;-69
2022/09/01 08:08:47;;;;;;;1.50;1.13;;;18.60;94.90;;;;;;5014112;28;20500;-72
2022/09/01 08:11:21;;;;;;;1.27;1.17;;;18.40;99.90;;;;;;5013680;28;20812;-71
2022/09/01 08:13:47;;;;;;;0.70;0.70;;;18.40;94.30;;;;;;5014426;28;20910;-71
2022/09/01 08:16:13;;;;;;;0.47;0.47;;;19.00;94.50;;;;;;5013840;28;20446;-72
2022/09/01 08:18:40;;;;;;;0.80;0.80;;;19.70;94.60;;;;;;5013871;28;20495;-72
2022/09/01 08:21:11;;;;;;;0.80;0.40;;;20.50;91.70;;;;;;5013949;28;20411;-71
2022/09/01 08:23:38;;;;;;;0.73;0.73;;;21.30;90.30;;;;;;5014117;28;20437;-72
2022/09/01 08:26:09;;;;;;;0.50;0.50;;;22.00;87.90;;;;;;5013928;28;20469;-72
2022/09/01 08:28:35;;;;;;;0.43;0.43;;;22.90;85.10;;;;;;5013745;28;20775;-71
2022/09/01 08:31:13;;;;;;;0.30;0.30;;;23.80;82.90;;;;;;5013629;28;20849;-72
2022/09/01 08:33:40;;;;;;;0.63;0.50;;;24.20;79.00;;;;;;5013959;28;20406;-71
2022/09/01 08:36:12;;;;;;;0.60;0.60;;;25.20;77.00;;;;;;5013716;28;20441;-72
2022/09/01 08:38:39;;;;;;;0.53;0.53;;;26.40;70.40;;;;;;5013937;28;20544;-73
2022/09/01 08:41:15;;;;;;;0.60;0.60;;;27.30;68.40;;;;;;5013596;28;20415;-71
2022/09/01 08:43:56;;;;;;;0.47;0.47;;;28.00;64.10;;;;;;5013910;28;20417;-72
2022/09/01 08:46:33;;;;;;;0.60;0.50;;;28.50;62.30;;;;;;5013682;28;20430;-72
2022/09/01 08:49:03;;;;;;;0.50;0.50;;;29.50;57.70;;;;;;5013605;28;20379;-71
2022/09/01 08:51:47;;;;;;;0.50;0.50;;;28.80;58.50;;;;;;5012126;28;20461;-72
2022/09/01 08:54:37;;;;;;;2.13;1.03;;;27.50;57.90;;;;;;5013630;28;20395;-71
2022/09/01 08:57:09;;;;;;;0.40;0.40;;;26.00;62.80;;;;;;5013689;28;20470;-72
2022/09/01 08:59:34;;;;;;;0.50;0.50;;;26.00;64.30;;;;;;5012099;28;20434;-71
2022/09/01 09:02:25;;;;;;;0.60;0.60;;;27.20;60.70;;;;;;5013498;28;20839;-71
2022/09/01 09:05:14;;;;;;;0.43;0.43;;;28.20;57.20;;;;;;5013630;28;20187;-72
2022/09/01 09:08:08;;;;;;;0.40;0.40;;;28.90;57.00;;;;;;5013344;28;20430;-72
2022/09/01 09:10:36;;;;;;;0.47;0.47;;;28.40;56.10;;;;;;4984517;28;21028;-70
2022/09/01 09:13:20;;;;;;;1.03;0.83;;;28.50;54.10;;;;;;5013476;28;20406;-73
2022/09/01 09:16:11;;;;;;;0.57;0.53;;;28.70;53.60;;;;;;5013223;28;20800;-71
2022/09/01 09:18:48;;;;;;;0.40;0.40;;;28.60;54.00;;;;;;5012664;28;20509;-71
2022/09/01 09:21:33;;;;;;;0.67;0.50;;;28.00;55.50;;;;;;5013266;28;20394;-71
2022/09/01 09:24:14;;;;;;;0.53;0.53;;;28.90;53.30;;;;;;5013491;28;20410;-73
2022/09/01 09:26:39;;;;;;;1.10;1.00;;;29.50;53.70;;;;;;5013201;28;20425;-72
2022/09/01 09:29:05;;;;;;;0.60;0.60;;;30.40;54.50;;;;;;5013283;28;20485;-73
2022/09/01 09:31:42;;;;;;;0.40;0.40;;;31.10;50.60;;;;;;5013128;28;20612;-74
2022/09/01 09:34:33;;;;;;;0.63;0.50;;;30.60;50.10;;;;;;5013418;28;20183;-72
2022/09/01 09:37:22;;;;;;;0.70;0.70;;;29.80;51.20;;;;;;5013240;28;20418;-72
2022/09/01 09:40:09;;;;;;;0.50;0.50;;;28.50;75.30;;;;;;5013048;28;20405;-73
2022/09/01 09:42:59;;;;;;;0.70;0.70;;;28.30;52.60;;;;;;5016689;28;20437;-71
2022/09/01 09:45:26;;;;;;;0.80;0.80;;;29.50;80.20;;;;;;5016563;28;20421;-72
2022/09/01 09:47:56;;;;;;;0.50;0.40;;;28.70;55.00;;;;;;5016758;28;20835;-73
2022/09/01 09:50:33;;;;;;;0.40;0.37;;;28.70;78.00;;;;;;5016446;28;20481;-72
2022/09/01 09:53:15;;;;;;;1.00;0.50;;;29.00;54.50;;;;;;5016718;28;20408;-73
2022/09/01 09:55:56;;;;;;;0.47;0.47;;;27.80;79.40;;;;;;5016561;28;20422;-72
2022/09/01 09:58:26;;;;;;;0.63;0.63;;;27.60;55.20;;;;;;5016411;28;20406;-71
2022/09/01 10:01:01;;;;;;;0.60;0.60;;;27.50;55.70;;;;;;5016482;28;20910;-71
2022/09/01 10:03:41;;;;;;;0.63;0.63;;;28.30;53.90;;;;;;5016438;28;20414;-73
2022/09/01 10:06:12;;;;;;;0.53;0.53;;;28.40;77.60;;;;;;5016663;28;20500;-72
2022/09/01 10:08:44;;;;;;;0.50;0.50;;;27.60;81.70;;;;;;5016414;28;20420;-72
2022/09/01 10:11:30;;;;;;;0.80;0.60;;;26.00;58.70;;;;;;5015875;28;20446;-72
2022/09/01 10:13:56;;;;;;;0.80;0.67;;;26.00;83.80;;;;;;5016303;28;20406;-72
2022/09/01 10:16:31;;;;;;;0.70;0.70;;;26.60;53.80;;;;;;5015986;28;20446;-72
2022/09/01 10:18:59;;;;;;;0.40;0.40;;;27.40;74.80;;;;;;5015996;28;20394;-72
2022/09/01 10:21:36;;;;;;;0.50;0.50;;;27.50;80.40;;;;;;5015845;28;20476;-74
2022/09/01 10:24:10;;;;;;;1.03;0.70;;;27.50;53.20;;;;;;5016041;28;20481;-71
2022/09/01 10:26:39;;;;;;;0.30;0.30;;;27.90;56.20;;;;;;5015846;28;20422;-71
2022/09/01 10:29:12;;;;;;;0.50;0.50;;;27.90;56.70;;;;;;5016010;28;20460;-73
2022/09/01 10:31:39;;;;;;;0.63;0.53;;;27.90;84.50;;;;;;5015825;28;20454;-72
2022/09/01 10:34:06;;;;;;;0.70;0.60;;;27.70;79.50;;;;;;5015922;28;20486;-71
2022/09/01 10:36:37;;;;;;;0.60;0.60;;;27.40;88.80;;;;;;5015779;28;20426;-71
2022/09/01 10:39:09;;;;;;;0.77;0.63;;;27.40;53.30;;;;;;5015647;28;20383;-73
2022/09/01 10:41:49;;;;;;;0.50;0.50;;;27.30;53.80;;;;;;5015454;28;20405;-72
2022/09/01 10:44:30;;;;;;;0.40;0.40;;;27.40;53.30;;;;;;5015775;28;20409;-73
2022/09/01 10:46:59;;;;;;;0.40;0.40;;;27.40;52.20;;;;;;5015509;28;20437;-73
2022/09/01 10:49:30;;;;;;;0.40;0.40;;;26.80;88.60;;;;;;5015632;28;20455;-71
2022/09/01 10:51:57;;;;;;;0.40;0.40;;;27.40;88.50;;;;;;5014861;28;20469;-73
2022/09/01 10:54:38;;;;;;;0.53;0.53;;;27.10;54.90;;;;;;5015482;28;20409;-71
2022/09/01 10:57:09;;;;;;;0.97;0.60;;;26.70;88.20;;;;;;5015262;28;20917;-70
2022/09/01 10:59:34;;;;;;;0.40;0.40;;;26.70;81.70;;;;;;5015312;28;20399;-70
2022/09/01 11:02:06;;;;;;;0.30;0.30;;;26.80;84.60;;;;;;5015417;28;20392;-73
2022/09/01 11:04:32;;;;;;;0.90;0.90;;;26.60;54.30;;;;;;5015414;28;20305;-72
2022/09/01 11:07:03;;;;;;;0.50;0.50;;;25.80;86.70;;;;;;5015081;28;20826;-73
2022/09/01 11:09:47;;;;;;;0.50;0.50;;;25.60;58.40;;;;;;5013923;28;20537;-72
2022/09/01 11:12:24;;;;;;;0.60;0.60;;;25.50;58.40;;;;;;5015272;28;20428;-72
2022/09/01 11:14:53;;;;;;;0.63;0.63;;;25.50;88.70;;;;;;5015026;28;20425;-71
2022/09/01 11:17:31;;;;;;;0.60;0.60;;;25.00;56.60;;;;;;5014860;28;20426;-72
2022/09/01 11:20:09;;;;;;;0.50;0.50;;;25.00;57.00;;;;;;5015074;28;20481;-71
2022/09/01 11:23:02;;;;;;;0.70;0.70;;;23.90;84.90;;;;;;5015081;28;20409;-71
2022/09/01 11:25:42;;;;;;;0.40;0.40;;;23.60;90.00;;;;;;5003821;28;20434;-73
2022/09/01 11:28:14;;;;;;;0.60;0.60;;;23.60;59.50;;;;;;5014785;28;20387;-73
2022/09/01 11:31:01;;;;;;;1.07;0.40;;;23.20;60.20;;;;;;5014491;28;20450;-72
2022/09/01 11:33:49;;;;;;;0.70;0.70;;;22.80;92.30;;;;;;5014754;28;20402;-72
2022/09/01 11:36:20;;;;;;;0.43;0.43;;;22.50;94.20;;;;;;5014578;28;20454;-71
2022/09/01 11:38:50;;;;;;;0.70;0.50;;;22.70;90.30;;;;;;5014587;28;20418;-72
2022/09/01 11:41:44;;;;;;;0.40;0.40;;;22.60;95.70;;;;;;5013202;28;20444;-71
2022/09/01 11:44:19;;;;;;;0.40;0.40;;;23.00;94.10;;;;;;4985617;28;20849;-72
2022/09/01 11:46:45;;;;;;;0.77;0.77;;;22.80;92.00;;;;;;5014480;28;20786;-69
2022/09/01 11:49:30;;;;;;;0.50;0.50;;;22.30;97.20;;;;;;5014439;28;20415;-72
2022/09/01 11:51:59;;;;;;;0.57;0.57;;;22.00;64.60;;;;;;5014326;28;20553;-70
2022/09/01 11:54:25;;;;;;;0.43;0.43;;;22.10;94.00;;;;;;5014426;28;20403;-70
2022/09/01 11:56:51;;;;;;;0.40;0.40;;;22.20;94.60;;;;;;5014400;28;20486;-72
2022/09/01 11:59:34;;;;;;;0.47;0.47;;;22.10;69.80;;;;;;5014416;28;20405;-73
2022/09/01 12:02:00;;;;;;;0.67;0.67;;;22.20;96.30;;;;;;5014422;28;20202;-71
2022/09/01 12:04:32;;;;;;;0.40;0.40;;;22.00;63.50;;;;;;5013781;28;20444;-71
2022/09/01 12:07:05;;;;;;;0.57;0.53;;;21.80;66.60;;;;;;5014179;28;20197;-72
2022/09/01 12:09:43;;;;;;;0.73;0.73;;;21.80;95.20;;;;;;5012753;28;20416;-71
2022/09/01 12:12:36;;;;;;;0.40;0.40;;;21.60;64.90;;;;;;5014075;28;20455;-72
2022/09/01 12:15:19;;;;;;;0.40;0.40;;;22.10;68.70;;;;;;5013963;28;20433;-70
2022/09/01 12:17:45;;;;;;;0.53;0.50;;;22.20;66.60;;;;;;5014346;28;20394;-73
2022/09/01 12:20:27;;;;;;;0.77;0.77;;;22.40;68.90;;;;;;5013771;28;20423;-72
2022/09/01 12:22:54;;;;;;;0.40;0.40;;;23.20;93.40;;;;;;5014121;28;20753;-71
2022/09/01 12:25:40;;;;;;;0.70;0.70;;;23.30;90.90;;;;;;5013907;28;20406;-73
2022/09/01 12:28:06;;;;;;;0.80;0.80;;;;;;;;;;5014055;28;20823;-72
2022/09/01 12:30:38;;;;;;;0.80;0.63;;;23.70;64.60;;;;;;5012316;28;20413;-71
2022/09/01 12:33:06;;;;;;;0.43;0.43;;;23.80;83.50;;;;;;5014024;28;20958;-73
2022/09/01 12:35:33;;;;;;;0.30;0.30;;;23.40;91.70;;;;;;5013892;28;20967;-72
2022/09/01 12:38:17;;;;;;;0.40;0.40;;;23.70;64.10;;;;;;5013653;28;20421;-70
2022/09/01 12:40:44;;;;;;;0.30;0.30;;;23.80;64.60;;;;;;5013534;28;20398;-71
2022/09/01 12:43:09;;;;;;;0.40;0.40;;;23.60;62.60;;;;;;5013752;28;20376;-72
2022/09/01 12:45:45;;;;;;;0.50;0.50;;;22.80;62.20;;;;;;5013725;28;20399;-70
2022/09/01 12:48:29;;;;;;;0.50;0.50;;;22.80;63.00;;;;;;5013757;28;20188;-73
2022/09/01 12:50:57;;;;;;;0.60;0.60;;;22.20;93.80;;;;;;5013345;28;20980;-73
2022/09/01 12:53:27;;;;;;;0.40;0.40;;;22.30;67.60;;;;;;5013600;28;20418;-73
2022/09/01 12:56:14;;;;;;;0.50;0.50;;;21.90;94.40;;;;;;5013713;28;20452;-71
2022/09/01 12:58:43;;;;;;;0.77;0.43;;;22.00;86.70;;;;;;5013609;28;20412;-70
2022/09/01 13:01:25;;;;;;;0.50;0.50;;;21.80;67.40;;;;;;5013473;28;20439;-72
2022/09/01 13:04:11;;;;;;;0.60;0.60;;;21.90;95.50;;;;;;5013728;28;20405;-71
2022/09/01 13:06:37;;;;;;;0.77;0.77;;;21.70;76.00;;;;;;5013386;28;20437;-70
2022/09/01 13:09:03;;;;;;;0.40;0.40;;;21.70;95.40;;;;;;5013350;28;20471;-71
2022/09/01 13:11:28;;;;;;;0.50;0.50;;;21.70;94.80;;;;;;5013141;28;20489;-71
2022/09/01 13:13:55;;;;;;;0.40;0.40;;;;;;;;;;5013307;28;20405;-72